CheckWX is a tool to help pilots better visualize weather data.  It is not intended as a substitute for an official pre-flight weather briefing.

21:04:57 UTC

KBYS METAR
Bicycle Lake AAF Airport
Fort Irwin/Barstow, California, USA
Current

42 mins ago

KBYS 232023Z AUTO 17012G18KT 10SM FEW036 BKN049 17/07 A2988 RMK AO2 WSHFT 16 LTG DSNT N SLPNO WND DATA ESTMD
Observed
May-23 @ 20:23 UTC
Wind
  • 170° at 12 KTS
  • Gusting to 18 KTS
Visibility
10 SM
Flight Rules
VFR
Cloud Levels
  • Few at 3,600' AGL
  • Broken at 4,900' AGL
Temperature
17°C / 63°F
Dewpoint
C / 45°F
Humidity
52%
Altimeter
29.88" Hg
Pressure
1011.82 hPa
Previous

2 hours ago

KBYS 231858Z AUTO 23010KT 190V270 10SM FEW033 BKN050 17/08 A2987 RMK AO2 SLPNO WND DATA ESTMD T01710076
Observed
May-23 @ 18:58 UTC
Wind
  • 230° at 10 KTS
Visibility
10 SM
Flight Rules
VFR
Cloud Levels
  • Few at 3,300' AGL
  • Broken at 5,000' AGL
Temperature
17°C / 63°F
Dewpoint
C / 46°F
Humidity
56%
Altimeter
29.87" Hg
Pressure
1011.52 hPa
Previous

3 hours ago

KBYS 231758Z AUTO 21011KT 10SM FEW032 SCT037 BKN048 BKN080 16/07 A2986 RMK AO2 SLPNO WND DATA ESTMD T01560069 10156 20093 52015
Observed
May-23 @ 17:58 UTC
Wind
  • 210° at 11 KTS
Visibility
10 SM
Flight Rules
VFR
Cloud Levels
  • Few at 3,200' AGL
  • Scattered at 3,700' AGL
  • Broken at 4,800' AGL
  • Broken at 8,000' AGL
Temperature
16°C / 61°F
Dewpoint
C / 45°F
Humidity
55%
Altimeter
29.86" Hg
Pressure
1011.22 hPa